createdAt,value
2016-11-04T00:00:33.575Z,17.14
2016-11-04T00:01:47.192Z,17.14
2016-11-04T00:03:00.301Z,17.04
2016-11-04T00:04:13.959Z,17.1
2016-11-04T00:05:27.632Z,17.09
2016-11-04T00:06:41.258Z,17.13
2016-11-04T00:07:54.933Z,17.06
2016-11-04T00:09:08.699Z,17.07
2016-11-04T00:10:22.505Z,17.16
2016-11-04T00:11:36.162Z,17.1
2016-11-04T00:12:49.414Z,17.1
2016-11-04T00:14:02.564Z,17.1
2016-11-04T00:15:16.191Z,17.07
2016-11-04T00:16:29.972Z,17.13
2016-11-04T00:17:43.578Z,17.13
2016-11-04T00:18:57.366Z,17.13
2016-11-04T00:20:10.598Z,17.04
2016-11-04T00:21:24.383Z,17.02
2016-11-04T00:22:38.003Z,17.04
2016-11-04T00:23:51.699Z,17.04
2016-11-04T00:25:03.847Z,16.98
2016-11-04T00:26:17.540Z,17.02
2016-11-04T00:27:30.657Z,17.04
2016-11-04T00:28:44.287Z,17.02
2016-11-04T00:29:57.426Z,17.1
2016-11-04T00:31:10.549Z,17.04
2016-11-04T00:32:24.200Z,17.1
2016-11-04T00:33:37.458Z,17.12
2016-11-04T00:34:50.786Z,17.19
2016-11-04T00:36:03.936Z,17.17
2016-11-04T00:37:17.744Z,17.13
2016-11-04T00:38:30.363Z,17.1
2016-11-04T00:39:44.057Z,17.12
2016-11-04T00:40:57.206Z,17.14
2016-11-04T00:42:10.295Z,17.17
2016-11-04T00:43:24.041Z,17.17
2016-11-04T00:44:37.912Z,17.24
2016-11-04T00:45:51.099Z,17.3
2016-11-04T00:47:03.724Z,17.14
2016-11-04T00:48:16.984Z,17.16
2016-11-04T00:49:29.640Z,17.19
2016-11-04T00:50:42.321Z,17.1
2016-11-04T00:51:55.997Z,17.13
2016-11-04T00:53:08.578Z,17.1
2016-11-04T00:54:21.743Z,17.09
2016-11-04T00:55:34.926Z,17.09
2016-11-04T00:56:48.089Z,16.98
2016-11-04T00:58:00.711Z,16.99
2016-11-04T00:59:14.428Z,16.99
2016-11-04T01:00:27.067Z,16.91
2016-11-04T01:01:39.763Z,16.97
2016-11-04T01:02:52.793Z,16.95
2016-11-04T01:04:06.550Z,17.09
2016-11-04T01:05:19.703Z,17.04
2016-11-04T01:06:32.943Z,17.06
2016-11-04T01:07:46.551Z,17.16
2016-11-04T01:08:59.600Z,17.12
2016-11-04T01:10:13.343Z,17.09
2016-11-04T01:11:26.584Z,17.07
2016-11-04T01:12:40.350Z,17.04
2016-11-04T01:13:54.010Z,17.07
2016-11-04T01:15:06.562Z,17.09
2016-11-04T01:16:19.662Z,17.06
2016-11-04T01:17:32.835Z,17.02
2016-11-04T01:18:46.668Z,17.02
2016-11-04T01:19:58.894Z,17.06
2016-11-04T01:21:11.756Z,17.07
2016-11-04T01:22:24.830Z,16.98
2016-11-04T01:23:37.939Z,16.97
2016-11-04T01:24:50.668Z,17.02
2016-11-04T01:26:03.872Z,17.06
2016-11-04T01:27:17.526Z,17.07
2016-11-04T01:28:31.388Z,16.97
2016-11-04T01:29:44.974Z,16.97
2016-11-04T01:30:58.651Z,16.92
2016-11-04T01:32:12.403Z,16.92
2016-11-04T01:33:26.212Z,16.97
2016-11-04T01:34:39.505Z,16.98
2016-11-04T01:35:52.766Z,16.99
2016-11-04T01:37:05.897Z,16.98
2016-11-04T01:38:19.000Z,17.12
2016-11-04T01:39:32.114Z,17.09
2016-11-04T01:40:45.738Z,16.97
2016-11-04T01:41:58.765Z,17.12
2016-11-04T01:43:11.426Z,17.13
2016-11-04T01:44:25.134Z,16.98
2016-11-04T01:45:37.866Z,16.95
2016-11-04T01:46:51.625Z,16.98
2016-11-04T01:48:05.470Z,17.04
2016-11-04T01:49:18.689Z,17.02
2016-11-04T01:50:31.897Z,17.12
2016-11-04T01:51:45.518Z,17.14
2016-11-04T01:52:59.454Z,17.16
2016-11-04T01:54:13.196Z,17.17
2016-11-04T01:55:26.021Z,17.19
2016-11-04T01:56:39.380Z,17.27
2016-11-04T01:57:52.546Z,17.24
2016-11-04T01:59:06.507Z,17.31
2016-11-04T02:00:19.691Z,17.24
2016-11-04T02:01:33.323Z,17.3
2016-11-04T02:02:46.897Z,17.3
2016-11-04T02:04:00.061Z,17.2
2016-11-04T02:05:12.619Z,17.2
2016-11-04T02:06:25.873Z,17.17
2016-11-04T02:07:37.971Z,17.13
2016-11-04T02:08:51.700Z,17.13
2016-11-04T02:10:04.904Z,17.1
2016-11-04T02:11:18.117Z,17.14
2016-11-04T02:12:31.879Z,17.1
2016-11-04T02:13:44.988Z,17.12
2016-11-04T02:14:58.129Z,17.1
2016-11-04T02:16:11.389Z,17.1
2016-11-04T02:17:25.049Z,17.12
2016-11-04T02:18:38.948Z,17.13
2016-11-04T02:19:52.650Z,17.07
2016-11-04T02:21:05.289Z,17.06
2016-11-04T02:22:18.974Z,17.02
2016-11-04T02:23:32.169Z,17.04
2016-11-04T02:24:46.015Z,17.04
2016-11-04T02:25:59.736Z,17.07
2016-11-04T02:27:12.909Z,17.02
2016-11-04T02:28:26.755Z,17.06
2016-11-04T02:29:40.415Z,17.01
2016-11-04T02:30:54.091Z,17.06
2016-11-04T02:32:07.367Z,17.06
2016-11-04T02:33:19.489Z,17.04
2016-11-04T02:34:32.635Z,17.04
2016-11-04T02:35:46.328Z,17.04
2016-11-04T02:37:00.053Z,17.1
2016-11-04T02:38:13.183Z,17.14
2016-11-04T02:39:26.327Z,17.17
2016-11-04T02:40:39.368Z,17.1
2016-11-04T02:41:52.121Z,17.09
2016-11-04T02:43:05.367Z,17.16
2016-11-04T02:44:18.486Z,17.17
2016-11-04T02:45:31.035Z,17.14
2016-11-04T02:46:44.782Z,17.1
2016-11-04T02:47:58.442Z,17.1
2016-11-04T02:49:12.163Z,17.1
2016-11-04T02:50:24.805Z,17.24
2016-11-04T02:51:38.552Z,17.22
2016-11-04T02:52:52.135Z,17.2
2016-11-04T02:54:05.787Z,17.24
2016-11-04T02:55:19.467Z,17.22
2016-11-04T02:56:32.675Z,17.22
2016-11-04T02:57:46.368Z,17.24
2016-11-04T02:58:59.422Z,17.28
2016-11-04T03:00:12.524Z,17.19
2016-11-04T03:01:26.204Z,17.2
2016-11-04T03:02:38.676Z,17.24
2016-11-04T03:03:51.302Z,17.25
2016-11-04T03:05:04.899Z,17.2
2016-11-04T03:06:18.544Z,17.17
2016-11-04T03:07:32.119Z,17.27
2016-11-04T03:08:44.160Z,17.14
2016-11-04T03:09:57.857Z,17.16
2016-11-04T03:11:10.563Z,17.16
2016-11-04T03:12:23.703Z,17.22
2016-11-04T03:13:37.389Z,17.24
2016-11-04T03:14:50.005Z,17.1
2016-11-04T03:16:02.735Z,17.2
2016-11-04T03:17:16.511Z,17.19
2016-11-04T03:18:29.642Z,17.22
2016-11-04T03:19:43.248Z,17.19
2016-11-04T03:20:56.291Z,17.13
2016-11-04T03:22:09.869Z,17.22
2016-11-04T03:23:23.451Z,17.24
2016-11-04T03:24:37.081Z,17.25
2016-11-04T03:25:50.734Z,17.19
2016-11-04T03:27:04.403Z,17.24
2016-11-04T03:28:16.890Z,17.24
2016-11-04T03:29:29.501Z,17.2
2016-11-04T03:30:43.067Z,17.27
2016-11-04T03:31:56.769Z,17.32
2016-11-04T03:33:10.451Z,17.38
2016-11-04T03:34:23.605Z,17.34
2016-11-04T03:35:36.735Z,17.31
2016-11-04T03:36:50.424Z,17.32
2016-11-04T03:38:04.160Z,17.37
2016-11-04T03:39:17.312Z,17.24
2016-11-04T03:40:30.922Z,17.25
2016-11-04T03:41:44.561Z,17.24
2016-11-04T03:42:57.678Z,17.27
2016-11-04T03:44:10.188Z,17.2
2016-11-04T03:45:23.864Z,17.22
2016-11-04T03:46:37.561Z,17.24
2016-11-04T03:47:51.224Z,17.17
2016-11-04T03:49:04.956Z,17.19
2016-11-04T03:50:18.110Z,17.24
2016-11-04T03:51:31.130Z,17.27
2016-11-04T03:52:43.200Z,17.22
2016-11-04T03:53:56.874Z,17.22
2016-11-04T03:55:10.516Z,17.19
2016-11-04T03:56:24.154Z,17.14
2016-11-04T03:57:37.295Z,17.22
2016-11-04T03:58:50.387Z,17.2
2016-11-04T04:00:04.059Z,17.22
2016-11-04T04:01:16.563Z,17.22
2016-11-04T04:02:29.187Z,17.19
2016-11-04T04:03:41.753Z,17.19
2016-11-04T04:04:54.874Z,17.16
2016-11-04T04:06:07.472Z,17.17
2016-11-04T04:07:19.486Z,17.27
2016-11-04T04:08:33.132Z,17.19
2016-11-04T04:09:45.681Z,17.27
2016-11-04T04:10:58.790Z,17.3
2016-11-04T04:12:11.962Z,17.2
2016-11-04T04:13:25.630Z,17.25
2016-11-04T04:14:37.651Z,17.25
2016-11-04T04:15:50.282Z,17.19
2016-11-04T04:17:03.347Z,17.22
2016-11-04T04:18:16.481Z,17.24
2016-11-04T04:19:29.558Z,17.16
2016-11-04T04:20:42.091Z,17.25
2016-11-04T04:21:54.709Z,17.17
2016-11-04T04:23:07.274Z,17.14
2016-11-04T04:24:20.424Z,17.12
2016-11-04T04:25:33.572Z,17.14
2016-11-04T04:26:47.214Z,17.1
2016-11-04T04:28:00.260Z,17.1
2016-11-04T04:29:12.896Z,17.14
2016-11-04T04:30:26.054Z,17.22
2016-11-04T04:31:39.662Z,17.25
2016-11-04T04:32:52.773Z,17.24
2016-11-04T04:34:05.880Z,17.19
2016-11-04T04:35:18.976Z,17.16
2016-11-04T04:36:32.611Z,17.2
2016-11-04T04:37:45.198Z,17.25
2016-11-04T04:38:58.838Z,17.27
2016-11-04T04:40:11.493Z,17.28
2016-11-04T04:41:24.621Z,17.24
2016-11-04T04:42:37.674Z,17.25
2016-11-04T04:43:50.771Z,17.22
2016-11-04T04:45:03.850Z,17.3
2016-11-04T04:46:17.536Z,17.2
2016-11-04T04:47:30.139Z,17.19
2016-11-04T04:48:43.302Z,17.24
2016-11-04T04:49:56.922Z,17.17
2016-11-04T04:51:10.574Z,17.16
2016-11-04T04:52:23.163Z,17.14
2016-11-04T04:53:36.853Z,17.17
2016-11-04T04:54:50.503Z,17.19
2016-11-04T04:56:04.125Z,17.14
2016-11-04T04:57:16.701Z,17.09
2016-11-04T04:58:29.832Z,17.17
2016-11-04T04:59:42.914Z,17.14
2016-11-04T05:00:54.917Z,17.22
2016-11-04T05:02:08.522Z,17.28
2016-11-04T05:03:22.207Z,17.25
2016-11-04T05:04:34.783Z,17.27
2016-11-04T05:05:47.974Z,17.22
2016-11-04T05:07:01.639Z,17.24
2016-11-04T05:08:15.347Z,17.3
2016-11-04T05:09:28.389Z,17.2
2016-11-04T05:10:40.921Z,17.22
2016-11-04T05:11:52.941Z,17.16
2016-11-04T05:13:05.006Z,17.17
2016-11-04T05:14:17.553Z,17.28
2016-11-04T05:15:29.609Z,17.22
2016-11-04T05:16:42.716Z,17.22
2016-11-04T05:17:55.797Z,17.16
2016-11-04T05:19:08.860Z,17.24
2016-11-04T05:20:20.862Z,17.31
2016-11-04T05:21:33.974Z,17.25
2016-11-04T05:22:46.570Z,17.22
2016-11-04T05:23:59.666Z,17.17
2016-11-04T05:25:12.252Z,17.22
2016-11-04T05:26:25.822Z,17.2
2016-11-04T05:27:38.894Z,17.17
2016-11-04T05:28:51.924Z,17.22
2016-11-04T05:30:05.557Z,17.14
2016-11-04T05:31:18.677Z,17.19
2016-11-04T05:32:31.824Z,17.13
2016-11-04T05:33:44.421Z,17.13
2016-11-04T05:34:56.908Z,17.06
2016-11-04T05:36:10.537Z,17.07
2016-11-04T05:37:23.148Z,17.1
2016-11-04T05:38:36.269Z,17.13
2016-11-04T05:39:48.311Z,17.09
2016-11-04T05:41:01.407Z,17.06
2016-11-04T05:42:14.545Z,17.06
2016-11-04T05:43:28.174Z,17.07
2016-11-04T05:44:41.299Z,17.04
2016-11-04T05:45:53.283Z,17.1
2016-11-04T05:47:05.316Z,17.06
2016-11-04T05:48:17.270Z,17.13
2016-11-04T05:49:29.846Z,17.14
2016-11-04T05:50:42.352Z,17.06
2016-11-04T05:51:55.453Z,17.07
2016-11-04T05:53:09.104Z,16.92
2016-11-04T05:54:22.227Z,16.95
2016-11-04T05:55:34.821Z,17.01
2016-11-04T05:56:47.437Z,17.09
2016-11-04T05:58:00.588Z,16.99
2016-11-04T05:59:14.186Z,17.12
2016-11-04T06:00:27.927Z,16.98
2016-11-04T06:01:40.475Z,17.14
2016-11-04T06:02:54.130Z,17.06
2016-11-04T06:04:06.176Z,17.13
2016-11-04T06:05:19.285Z,16.99
2016-11-04T06:06:32.944Z,17.17
2016-11-04T06:07:46.585Z,17.06
2016-11-04T06:08:59.674Z,17.12
2016-11-04T06:10:12.239Z,17.13
2016-11-04T06:11:24.766Z,17.07
2016-11-04T06:12:38.456Z,17.07
2016-11-04T06:13:51.541Z,17.13
2016-11-04T06:15:05.210Z,17.12
2016-11-04T06:16:17.806Z,17.09
2016-11-04T06:17:30.326Z,17.12
2016-11-04T06:18:43.939Z,17.12
2016-11-04T06:19:56.533Z,17.14
2016-11-04T06:21:09.525Z,17.12
2016-11-04T06:22:22.121Z,17.09
2016-11-04T06:23:34.584Z,17.09
2016-11-04T06:24:47.173Z,17.16
2016-11-04T06:25:59.749Z,17.19
2016-11-04T06:27:13.438Z,17.12
2016-11-04T06:28:24.941Z,17.17
2016-11-04T06:29:38.664Z,17.13
2016-11-04T06:30:51.819Z,17.12
2016-11-04T06:32:03.842Z,17.13
2016-11-04T06:33:16.379Z,17.24
2016-11-04T06:34:28.445Z,17.17
2016-11-04T06:35:42.056Z,17.17
2016-11-04T06:36:55.743Z,17.13
2016-11-04T06:38:08.295Z,17.17
2016-11-04T06:39:20.908Z,17.13
2016-11-04T06:40:34.033Z,17.1
2016-11-04T06:41:47.165Z,17.12
2016-11-04T06:42:59.755Z,17.13
2016-11-04T06:44:12.885Z,17.13
2016-11-04T06:45:25.363Z,17.16
2016-11-04T06:46:38.546Z,17.13
2016-11-04T06:47:51.575Z,17.14
2016-11-04T06:49:04.066Z,17.16
2016-11-04T06:50:17.217Z,17.1
2016-11-04T06:51:30.870Z,17.13
2016-11-04T06:52:43.907Z,17.13
2016-11-04T06:53:56.460Z,17.1
2016-11-04T06:55:08.467Z,17.17
2016-11-04T06:56:21.149Z,17.12
2016-11-04T06:57:33.723Z,17.16
2016-11-04T06:58:46.915Z,17.19
2016-11-04T07:00:00.001Z,17.12
2016-11-04T07:01:11.514Z,17.13
2016-11-04T07:02:24.665Z,17.17
2016-11-04T07:03:36.648Z,17.16
2016-11-04T07:04:49.793Z,17.13
2016-11-04T07:06:01.829Z,17.19
2016-11-04T07:07:14.969Z,17.17
2016-11-04T07:08:27.493Z,17.1
2016-11-04T07:09:40.565Z,17.12
2016-11-04T07:10:53.178Z,17.16
2016-11-04T07:12:05.221Z,17.13
2016-11-04T07:13:18.875Z,17.09
2016-11-04T07:14:31.966Z,17.13
2016-11-04T07:15:44.058Z,17.13
2016-11-04T07:16:56.631Z,17.14
2016-11-04T07:18:08.660Z,17.19
2016-11-04T07:19:21.831Z,17.1
2016-11-04T07:20:35.479Z,17.13
2016-11-04T07:21:48.026Z,17.13
2016-11-04T07:23:01.106Z,17.14
2016-11-04T07:24:14.190Z,17.1
2016-11-04T07:25:27.309Z,17.14
2016-11-04T07:26:39.859Z,17.17
2016-11-04T07:27:52.327Z,17.17
2016-11-04T07:29:04.864Z,17.14
2016-11-04T07:30:16.887Z,17.12
2016-11-04T07:31:30.550Z,17.16
2016-11-04T07:32:44.279Z,17.13
2016-11-04T07:33:57.971Z,17.13
2016-11-04T07:35:11.099Z,17.14
2016-11-04T07:36:23.703Z,17.17
2016-11-04T07:37:36.784Z,17.12
2016-11-04T07:38:48.878Z,17.12
2016-11-04T07:40:02.017Z,17.07
2016-11-04T07:41:13.542Z,17.09
2016-11-04T07:42:26.102Z,17.12
2016-11-04T07:43:39.249Z,17.1
2016-11-04T07:44:51.821Z,17.24
2016-11-04T07:46:04.940Z,17.19
2016-11-04T07:47:16.979Z,17.17
2016-11-04T07:48:29.516Z,17.16
2016-11-04T07:49:42.060Z,17.16
2016-11-04T07:50:55.229Z,17.14
2016-11-04T07:52:08.349Z,17.12
2016-11-04T07:53:20.358Z,17.07
2016-11-04T07:54:33.478Z,17.12
2016-11-04T07:55:46.028Z,17.13
2016-11-04T07:56:58.070Z,17.14
2016-11-04T07:58:11.191Z,17.09
2016-11-04T07:59:24.872Z,17.1
2016-11-04T08:00:38.024Z,17.13
2016-11-04T08:01:51.169Z,17.02
2016-11-04T08:03:04.263Z,17.1
2016-11-04T08:04:17.345Z,17.09
2016-11-04T08:05:30.488Z,17.07
2016-11-04T08:06:42.567Z,17.07
2016-11-04T08:07:55.169Z,17.17
2016-11-04T08:09:07.757Z,17.14
2016-11-04T08:10:20.316Z,16.97
2016-11-04T08:11:33.512Z,17.04
2016-11-04T08:12:46.620Z,17.04
2016-11-04T08:13:58.669Z,17.02
2016-11-04T08:15:10.699Z,16.99
2016-11-04T08:16:23.819Z,16.99
2016-11-04T08:17:36.425Z,17.04
2016-11-04T08:18:49.517Z,17.13
2016-11-04T08:20:02.579Z,17.1
2016-11-04T08:21:15.619Z,17.01
2016-11-04T08:22:29.265Z,17.09
2016-11-04T08:23:41.762Z,16.98
2016-11-04T08:24:54.844Z,17.02
2016-11-04T08:26:08.536Z,17.13
2016-11-04T08:27:21.061Z,17.13
2016-11-04T08:28:34.154Z,17.13
2016-11-04T08:29:47.236Z,17.06
2016-11-04T08:30:59.263Z,17.13
2016-11-04T08:32:12.800Z,17.2
2016-11-04T08:33:25.381Z,17.22
2016-11-04T08:34:37.895Z,17.16
2016-11-04T08:35:50.413Z,17.24
2016-11-04T08:37:03.511Z,17.17
2016-11-04T08:38:16.640Z,17.16
2016-11-04T08:39:29.217Z,17.3
2016-11-04T08:40:42.347Z,17.2
2016-11-04T08:41:54.946Z,17.22
2016-11-04T08:43:06.964Z,17.19
2016-11-04T08:44:20.061Z,17.22
2016-11-04T08:45:33.673Z,17.2
2016-11-04T08:46:46.822Z,17.17
2016-11-04T08:48:00.469Z,17.19
2016-11-04T08:49:12.950Z,17.22
2016-11-04T08:50:26.090Z,17.22
2016-11-04T08:51:38.103Z,17.14
2016-11-04T08:52:51.716Z,17.2
2016-11-04T08:54:04.779Z,17.27
2016-11-04T08:55:18.431Z,17.17
2016-11-04T08:56:31.000Z,17.13
2016-11-04T08:57:44.168Z,17.28
2016-11-04T08:58:57.230Z,17.31
2016-11-04T09:00:10.861Z,17.3
2016-11-04T09:01:24.026Z,17.27
2016-11-04T09:02:37.636Z,17.24
2016-11-04T09:03:50.702Z,17.25
2016-11-04T09:05:04.374Z,17.22
2016-11-04T09:06:16.997Z,17.24
2016-11-04T09:07:30.166Z,17.24
2016-11-04T09:08:43.292Z,17.27
2016-11-04T09:09:55.879Z,17.27
2016-11-04T09:11:08.988Z,17.25
2016-11-04T09:12:22.128Z,17.24
2016-11-04T09:13:34.746Z,17.27
2016-11-04T09:14:47.842Z,17.31
2016-11-04T09:16:00.411Z,17.22
2016-11-04T09:17:13.442Z,17.32
2016-11-04T09:18:25.540Z,17.24
2016-11-04T09:19:38.692Z,17.25
2016-11-04T09:20:52.400Z,17.27
2016-11-04T09:22:04.485Z,17.22
2016-11-04T09:23:17.483Z,17.24
2016-11-04T09:24:31.110Z,17.25
2016-11-04T09:25:43.637Z,17.27
2016-11-04T09:26:56.731Z,17.31
2016-11-04T09:28:09.846Z,17.25
2016-11-04T09:29:22.933Z,17.22
2016-11-04T09:30:36.566Z,17.22
2016-11-04T09:31:50.115Z,17.24
2016-11-04T09:33:02.719Z,17.19
2016-11-04T09:34:15.886Z,17.24
2016-11-04T09:35:28.471Z,17.16
2016-11-04T09:36:41.615Z,17.2
2016-11-04T09:37:55.224Z,17.22
2016-11-04T09:39:08.786Z,17.27
2016-11-04T09:40:21.319Z,17.3
2016-11-04T09:41:33.889Z,17.14
2016-11-04T09:42:46.496Z,17.13
2016-11-04T09:43:59.684Z,17.13
2016-11-04T09:45:13.257Z,17.16
2016-11-04T09:46:25.730Z,17.09
2016-11-04T09:47:38.847Z,17.12
2016-11-04T09:48:51.991Z,17.17
2016-11-04T09:50:05.066Z,17.1
2016-11-04T09:51:17.609Z,17.09
2016-11-04T09:52:30.155Z,17.09
2016-11-04T09:53:43.276Z,17.02
2016-11-04T09:54:56.945Z,17.14
2016-11-04T09:56:10.009Z,17.14
2016-11-04T09:57:23.742Z,17.13
2016-11-04T09:58:37.305Z,17.13
2016-11-04T09:59:50.491Z,17.14
2016-11-04T10:01:03.589Z,17.16
2016-11-04T10:02:47.819Z,17.25
2016-11-04T10:04:01.457Z,17.22
2016-11-04T10:06:58.147Z,17.3
2016-11-04T10:08:11.240Z,17.1
2016-11-04T10:09:23.729Z,17.13
2016-11-04T10:10:36.224Z,17.13
2016-11-04T10:11:49.891Z,17.22
2016-11-04T10:13:02.476Z,17.22
2016-11-04T10:14:15.640Z,17.24
2016-11-04T10:15:28.640Z,17.16
2016-11-04T10:17:12.810Z,17.14
2016-11-04T10:18:25.914Z,17.17
2016-11-04T10:19:38.493Z,17.14
2016-11-04T10:20:51.594Z,17.19
2016-11-04T10:22:03.111Z,17.13
2016-11-04T10:23:16.761Z,17.2
2016-11-04T10:24:40.156Z,17.2
2016-11-04T10:25:53.241Z,17.22
2016-11-04T10:27:06.367Z,17.19
2016-11-04T10:28:20.056Z,17.19
2016-11-04T10:29:32.553Z,17.24
2016-11-04T10:30:45.092Z,17.22
2016-11-04T10:31:58.818Z,17.2
2016-11-04T10:33:10.809Z,17.2
2016-11-04T10:34:23.366Z,17.25
2016-11-04T10:35:37.031Z,17.22
2016-11-04T10:36:50.710Z,17.31
2016-11-04T10:38:03.749Z,17.22
2016-11-04T10:39:17.380Z,17.25
2016-11-04T10:40:29.961Z,17.22
2016-11-04T10:41:42.976Z,17.19
2016-11-04T10:42:56.039Z,17.17
2016-11-04T10:44:09.743Z,17.25
2016-11-04T10:45:23.175Z,17.17
2016-11-04T10:46:36.854Z,17.17
2016-11-04T10:47:49.448Z,17.16
2016-11-04T10:49:03.026Z,17.17
2016-11-04T10:50:16.625Z,17.19
2016-11-04T10:51:29.703Z,17.22
2016-11-04T10:52:42.238Z,17.22
2016-11-04T10:53:54.766Z,17.17
2016-11-04T10:55:07.859Z,17.24
2016-11-04T10:56:20.939Z,17.19
2016-11-04T10:57:33.936Z,17.17
2016-11-04T10:58:47.599Z,17.17
2016-11-04T11:00:00.784Z,17.22
2016-11-04T11:01:14.421Z,17.14
2016-11-04T11:02:27.478Z,17.22
2016-11-04T11:03:40.077Z,17.17
2016-11-04T11:04:53.796Z,17.17
2016-11-04T11:06:06.843Z,17.17
2016-11-04T11:07:19.367Z,17.22
2016-11-04T11:08:32.991Z,17.27
2016-11-04T11:09:45.454Z,17.16
2016-11-04T11:10:57.458Z,17.2
2016-11-04T11:12:10.559Z,17.17
2016-11-04T11:13:23.194Z,17.17
2016-11-04T11:14:36.880Z,17.25
2016-11-04T11:15:49.952Z,17.2
2016-11-04T11:17:03.049Z,17.19
2016-11-04T11:18:15.664Z,17.19
2016-11-04T11:19:28.327Z,17.27
2016-11-04T11:20:40.850Z,17.27
2016-11-04T11:21:53.885Z,17.28
2016-11-04T11:23:07.520Z,17.41
2016-11-04T11:24:20.609Z,17.35
2016-11-04T11:25:34.226Z,17.31
2016-11-04T11:26:47.815Z,17.34
2016-11-04T11:28:00.341Z,17.37
2016-11-04T11:29:12.921Z,17.34
2016-11-04T11:30:25.450Z,17.34
2016-11-04T11:31:37.993Z,17.49
2016-11-04T11:32:51.060Z,17.54
2016-11-04T11:34:04.665Z,17.43
2016-11-04T11:35:17.707Z,17.54
2016-11-04T11:36:30.821Z,17.41
2016-11-04T11:37:43.822Z,17.38
2016-11-04T11:38:56.941Z,17.43
2016-11-04T11:40:10.038Z,17.46
2016-11-04T11:41:23.747Z,17.45
2016-11-04T11:42:36.925Z,17.39
2016-11-04T11:43:49.441Z,17.41
2016-11-04T11:45:02.520Z,17.38
2016-11-04T11:46:15.596Z,17.43
2016-11-04T11:47:28.687Z,17.39
2016-11-04T11:48:40.765Z,17.41
2016-11-04T11:49:53.817Z,17.38
2016-11-04T11:51:06.369Z,17.38
2016-11-04T11:52:20.062Z,17.31
2016-11-04T11:53:32.633Z,17.43
2016-11-04T11:54:44.613Z,17.38
2016-11-04T11:55:57.535Z,17.37
2016-11-04T11:57:09.523Z,17.35
2016-11-04T11:58:22.627Z,17.39
2016-11-04T11:59:35.700Z,17.24
2016-11-04T12:00:48.856Z,17.17
2016-11-04T12:02:33.668Z,17.16
2016-11-04T12:03:46.163Z,17.22
2016-11-04T12:04:58.227Z,17.22
2016-11-04T12:06:11.284Z,17.25
2016-11-04T12:07:24.354Z,17.17
2016-11-04T12:08:37.494Z,17.25
2016-11-04T12:09:50.161Z,17.25
2016-11-04T12:11:03.754Z,17.3
2016-11-04T12:12:16.849Z,17.3
2016-11-04T12:13:29.401Z,17.39
2016-11-04T12:14:42.532Z,17.39
2016-11-04T12:15:56.123Z,17.53
2016-11-04T12:17:09.185Z,17.38
2016-11-04T12:18:22.824Z,17.56
2016-11-04T12:19:34.869Z,17.37
2016-11-04T12:20:48.481Z,17.52
2016-11-04T12:22:01.585Z,17.53
2016-11-04T12:23:15.168Z,17.56
2016-11-04T12:24:28.023Z,17.59
2016-11-04T12:25:40.604Z,17.52
2016-11-04T12:26:53.611Z,17.53
2016-11-04T12:28:07.184Z,17.62
2016-11-04T12:29:20.322Z,17.59
2016-11-04T12:30:33.917Z,17.65
2016-11-04T12:31:47.592Z,17.73
2016-11-04T12:33:00.705Z,17.68
2016-11-04T12:34:45.443Z,17.68
2016-11-04T12:35:58.504Z,17.66
2016-11-04T12:37:11.583Z,17.65
2016-11-04T12:38:23.647Z,17.66
2016-11-04T12:39:35.631Z,17.72
2016-11-04T12:40:48.684Z,17.66
2016-11-04T12:42:01.787Z,17.62
2016-11-04T12:43:15.333Z,17.68
2016-11-04T12:44:28.984Z,17.53
2016-11-04T12:45:40.478Z,17.57
2016-11-04T12:46:53.557Z,17.54
2016-11-04T12:48:06.183Z,17.41
2016-11-04T12:49:19.206Z,17.43
2016-11-04T12:50:32.244Z,17.43
2016-11-04T12:51:45.882Z,17.35
2016-11-04T12:52:57.901Z,17.37
2016-11-04T12:54:11.011Z,17.37
2016-11-04T12:55:24.063Z,17.35
2016-11-04T12:56:37.117Z,17.32
2016-11-04T12:57:49.728Z,17.45
2016-11-04T12:59:02.838Z,17.41
2016-11-04T13:00:14.922Z,17.32
2016-11-04T13:01:27.975Z,17.52
2016-11-04T13:02:40.456Z,17.53
2016-11-04T13:03:53.582Z,17.5
2016-11-04T13:05:06.689Z,17.59
2016-11-04T13:06:19.822Z,17.65
2016-11-04T13:07:32.433Z,17.68
2016-11-04T13:08:46.083Z,17.83
2016-11-04T13:09:59.154Z,17.91
2016-11-04T13:11:12.815Z,17.97
2016-11-04T13:12:26.460Z,17.91
2016-11-04T13:13:40.158Z,17.9
2016-11-04T13:14:53.219Z,17.91
2016-11-04T13:16:06.320Z,17.9
2016-11-04T13:17:19.443Z,17.91
2016-11-04T13:18:32.631Z,17.93
2016-11-04T13:19:45.706Z,17.93
2016-11-04T13:20:59.419Z,17.88
2016-11-04T13:22:12.560Z,17.86
2016-11-04T13:23:26.252Z,17.88
2016-11-04T13:24:38.868Z,17.78
2016-11-04T13:25:51.458Z,17.78
2016-11-04T13:27:05.097Z,17.79
2016-11-04T13:28:18.720Z,17.86
2016-11-04T13:29:31.235Z,17.9
2016-11-04T13:30:43.775Z,18.01
2016-11-04T13:31:57.443Z,17.99
2016-11-04T13:33:11.050Z,17.99
2016-11-04T13:34:24.673Z,18.03
2016-11-04T13:35:37.216Z,18.17
2016-11-04T13:36:49.753Z,18.17
2016-11-04T13:38:03.408Z,18.31
2016-11-04T13:39:16.035Z,18.3
2016-11-04T13:40:29.122Z,18.56
2016-11-04T13:41:42.306Z,18.63
2016-11-04T13:42:54.947Z,18.94
2016-11-04T13:44:08.614Z,18.93
2016-11-04T13:45:22.297Z,19.09
2016-11-04T13:46:35.951Z,19.22
2016-11-04T13:47:49.037Z,19.24
2016-11-04T13:49:01.629Z,19.37
2016-11-04T13:50:14.764Z,19.52
2016-11-04T13:51:27.904Z,19.62
2016-11-04T13:52:40.453Z,19.7
2016-11-04T13:53:54.129Z,19.74
2016-11-04T13:55:06.172Z,19.67
2016-11-04T13:56:18.217Z,19.77
2016-11-04T13:57:31.834Z,19.71
2016-11-04T13:58:44.949Z,19.62
2016-11-04T13:59:58.621Z,19.67
2016-11-04T14:01:11.197Z,19.59
2016-11-04T14:02:23.771Z,19.62
2016-11-04T14:03:36.365Z,19.57
2016-11-04T14:04:49.962Z,19.59
2016-11-04T14:06:03.115Z,19.54
2016-11-04T14:07:16.296Z,19.49
2016-11-04T14:08:30.013Z,19.45
2016-11-04T14:09:43.187Z,19.42
2016-11-04T14:10:56.239Z,19.56
2016-11-04T14:12:09.918Z,19.6
2016-11-04T14:13:23.000Z,19.6
2016-11-04T14:14:35.512Z,19.56
2016-11-04T14:15:48.623Z,19.57
2016-11-04T14:17:01.720Z,19.47
2016-11-04T14:18:14.341Z,19.47
2016-11-04T14:19:27.452Z,19.49
2016-11-04T14:20:40.130Z,19.41
2016-11-04T14:21:52.733Z,19.3
2016-11-04T14:23:06.332Z,19.19
2016-11-04T14:24:19.471Z,19.08
2016-11-04T14:25:32.553Z,19.08
2016-11-04T14:26:45.173Z,19.16
2016-11-04T14:27:58.877Z,19.19
2016-11-04T14:29:12.544Z,19.26
2016-11-04T14:30:25.750Z,19.24
2016-11-04T14:31:38.848Z,19.26
2016-11-04T14:32:52.506Z,19.3
2016-11-04T14:34:36.141Z,19.19
2016-11-04T14:35:48.767Z,19.12
2016-11-04T14:37:01.918Z,18.98
2016-11-04T14:38:14.964Z,18.89
2016-11-04T14:39:28.119Z,18.91
2016-11-04T14:40:41.867Z,19.04
2016-11-04T14:41:54.364Z,19.08
2016-11-04T14:43:07.459Z,19.09
2016-11-04T14:44:20.683Z,19.22
2016-11-04T14:45:33.767Z,19.34
2016-11-04T14:46:47.385Z,19.49
2016-11-04T14:48:00.605Z,19.49
2016-11-04T14:49:14.234Z,19.54
2016-11-04T14:50:27.998Z,19.54
2016-11-04T14:51:41.042Z,19.67
2016-11-04T14:53:25.788Z,19.89
2016-11-04T14:54:38.356Z,19.92
2016-11-04T14:55:51.994Z,19.82
2016-11-04T14:57:05.062Z,19.72
2016-11-04T14:58:18.171Z,19.77
2016-11-04T14:59:31.816Z,19.6
2016-11-04T15:00:44.476Z,19.7
2016-11-04T15:01:57.598Z,19.59
2016-11-04T15:03:11.281Z,19.57
2016-11-04T15:04:24.358Z,19.47
2016-11-04T15:05:36.879Z,19.45
2016-11-04T15:06:50.540Z,19.39
2016-11-04T15:08:03.059Z,19.32
2016-11-04T15:09:16.240Z,19.22
2016-11-04T15:10:29.331Z,19.13
2016-11-04T15:11:42.414Z,19.08
2016-11-04T15:12:54.954Z,18.93
2016-11-04T15:14:07.014Z,18.81
2016-11-04T15:15:20.149Z,18.68
2016-11-04T15:16:33.846Z,18.7
2016-11-04T15:17:46.399Z,18.64
2016-11-04T15:18:59.471Z,18.71
2016-11-04T15:20:12.622Z,18.81
2016-11-04T15:21:25.774Z,18.85
2016-11-04T15:22:38.334Z,18.91
2016-11-04T15:23:50.837Z,18.98
2016-11-04T15:25:04.446Z,19.09
2016-11-04T15:26:18.107Z,19.15
2016-11-04T15:27:31.137Z,19.27
2016-11-04T15:28:43.739Z,19.3
2016-11-04T15:29:56.280Z,19.41
2016-11-04T15:31:09.901Z,19.39
2016-11-04T15:32:23.000Z,19.6
2016-11-04T15:33:36.120Z,19.49
2016-11-04T15:34:49.222Z,19.5
2016-11-04T15:36:02.304Z,19.59
2016-11-04T15:37:15.470Z,19.57
2016-11-04T15:38:29.196Z,19.54
2016-11-04T15:39:42.824Z,19.6
2016-11-04T15:40:56.578Z,19.57
2016-11-04T15:42:08.595Z,19.57
2016-11-04T15:43:21.722Z,19.52
2016-11-04T15:44:33.748Z,19.5
2016-11-04T15:45:46.930Z,19.44
2016-11-04T15:46:59.987Z,19.32
2016-11-04T15:48:13.620Z,19.34
2016-11-04T15:49:26.691Z,19.3